createdAt,value
2022-10-31T00:01:15.759Z,62.06
2022-10-31T00:03:42.626Z,62.12
2022-10-31T00:06:09.229Z,61.91
2022-10-31T00:08:35.940Z,61.86
2022-10-31T00:11:02.883Z,62.24
2022-10-31T00:13:29.673Z,62.74
2022-10-31T00:15:56.348Z,62.94
2022-10-31T00:18:22.941Z,62.81
2022-10-31T00:20:49.600Z,62.99
2022-10-31T00:23:16.228Z,63.07
2022-10-31T00:25:42.911Z,63.22
2022-10-31T00:28:11.979Z,63.27
2022-10-31T00:30:38.819Z,63.19
2022-10-31T00:33:06.202Z,63.28
2022-10-31T00:35:33.287Z,63.36
2022-10-31T00:38:00.875Z,63.22
2022-10-31T00:40:27.783Z,63.20
2022-10-31T00:42:54.436Z,63.58
2022-10-31T00:45:21.140Z,64.42
2022-10-31T00:47:48.027Z,64.04
2022-10-31T00:50:14.830Z,63.84
2022-10-31T00:52:41.581Z,63.72
2022-10-31T00:55:08.354Z,63.84
2022-10-31T00:57:34.992Z,64.00
2022-10-31T01:00:04.277Z,63.95
2022-10-31T01:02:31.140Z,64.21
2022-10-31T01:04:58.246Z,64.45
2022-10-31T01:07:25.195Z,64.27
2022-10-31T01:09:51.905Z,64.03
2022-10-31T01:12:19.898Z,64.44
2022-10-31T01:14:46.664Z,64.26
2022-10-31T01:17:14.233Z,64.22
2022-10-31T01:19:41.316Z,64.26
2022-10-31T01:22:08.065Z,64.11
2022-10-31T01:24:35.105Z,64.04
2022-10-31T01:27:02.690Z,64.00
2022-10-31T01:29:33.098Z,64.01
2022-10-31T01:31:59.815Z,63.97
2022-10-31T01:34:26.766Z,63.98
2022-10-31T01:36:54.493Z,63.87
2022-10-31T01:39:23.529Z,63.78
2022-10-31T01:41:53.436Z,64.16
2022-10-31T01:44:20.016Z,64.37
2022-10-31T01:46:52.604Z,64.26
2022-10-31T01:49:39.976Z,64.02
2022-10-31T01:52:28.075Z,64.10
2022-10-31T01:55:12.832Z,64.16
2022-10-31T01:57:42.518Z,63.99
2022-10-31T02:00:11.576Z,64.33
2022-10-31T02:02:41.431Z,64.32
2022-10-31T02:05:13.320Z,64.41
2022-10-31T02:07:49.110Z,64.27
2022-10-31T02:10:16.393Z,64.11
2022-10-31T02:12:44.620Z,64.17
2022-10-31T02:15:11.367Z,64.02
2022-10-31T02:17:38.235Z,64.17
2022-10-31T02:20:14.094Z,64.30
2022-10-31T02:23:06.856Z,64.69
2022-10-31T02:26:09.110Z,65.09
2022-10-31T02:28:59.894Z,65.26
2022-10-31T02:31:55.796Z,64.99
2022-10-31T02:34:35.425Z,65.14
2022-10-31T02:37:14.514Z,65.27
2022-10-31T02:39:54.680Z,65.15
2022-10-31T02:42:54.254Z,64.70
2022-10-31T02:45:24.010Z,64.69
2022-10-31T02:47:54.495Z,65.27
2022-10-31T02:50:28.094Z,65.15
2022-10-31T02:52:54.724Z,64.73
2022-10-31T02:55:26.188Z,65.14
2022-10-31T02:58:12.797Z,65.58
2022-10-31T03:00:53.737Z,65.30
2022-10-31T03:03:36.318Z,65.24
2022-10-31T03:06:09.891Z,65.69
2022-10-31T03:09:05.755Z,64.87
2022-10-31T03:11:45.654Z,65.26
2022-10-31T03:15:10.007Z,65.36
2022-10-31T03:17:54.710Z,65.40
2022-10-31T03:20:30.944Z,65.55
2022-10-31T03:22:59.708Z,65.42
2022-10-31T03:25:27.084Z,65.54
2022-10-31T03:27:59.111Z,65.77
2022-10-31T03:30:26.219Z,65.46
2022-10-31T03:33:00.629Z,65.38
2022-10-31T03:35:31.242Z,65.67
2022-10-31T03:38:05.433Z,65.45
2022-10-31T03:40:37.703Z,65.46
2022-10-31T03:43:10.246Z,65.44
2022-10-31T03:45:42.972Z,65.69
2022-10-31T03:48:09.961Z,64.95
2022-10-31T03:50:46.669Z,65.22
2022-10-31T03:53:23.528Z,65.34
2022-10-31T03:56:00.944Z,65.67
2022-10-31T03:58:44.272Z,65.49
2022-10-31T04:01:17.108Z,65.46
2022-10-31T04:03:45.450Z,66.00
2022-10-31T04:06:17.677Z,65.67
2022-10-31T04:09:00.540Z,65.58
2022-10-31T04:11:31.908Z,65.77
2022-10-31T04:14:17.294Z,65.78
2022-10-31T04:16:45.632Z,65.99
2022-10-31T04:19:13.445Z,66.03
2022-10-31T04:21:40.872Z,66.18
2022-10-31T04:24:07.968Z,66.57
2022-10-31T04:26:34.688Z,66.87
2022-10-31T04:29:01.490Z,66.98
2022-10-31T04:31:28.720Z,66.85
2022-10-31T04:33:55.432Z,66.29
2022-10-31T04:36:22.076Z,66.46
2022-10-31T04:38:48.824Z,66.50
2022-10-31T04:41:29.783Z,66.72
2022-10-31T04:44:01.353Z,67.42
2022-10-31T04:46:28.214Z,67.58
2022-10-31T04:48:57.547Z,67.50
2022-10-31T04:51:24.573Z,67.57
2022-10-31T04:53:51.867Z,67.69
2022-10-31T04:56:37.127Z,67.21
2022-10-31T04:59:10.887Z,67.30
2022-10-31T05:01:55.479Z,67.78
2022-10-31T05:04:39.007Z,67.48
2022-10-31T05:07:05.703Z,67.50
2022-10-31T05:09:32.407Z,67.36
2022-10-31T05:11:59.058Z,67.56
2022-10-31T05:14:47.648Z,67.81
2022-10-31T05:17:34.345Z,66.82
2022-10-31T05:20:24.207Z,66.97
2022-10-31T05:23:14.006Z,67.09
2022-10-31T05:25:42.037Z,67.24
2022-10-31T05:28:08.925Z,66.51
2022-10-31T05:30:36.174Z,67.20
2022-10-31T05:33:04.539Z,67.03
2022-10-31T05:35:51.531Z,67.08
2022-10-31T05:38:29.702Z,66.57
2022-10-31T05:41:02.840Z,65.71
2022-10-31T05:43:31.992Z,65.72
2022-10-31T05:45:59.618Z,66.11
2022-10-31T05:48:46.271Z,67.13
2022-10-31T05:51:41.928Z,67.08
2022-10-31T05:54:12.059Z,67.50
2022-10-31T05:56:43.927Z,67.01
2022-10-31T05:59:10.579Z,66.74
2022-10-31T06:01:37.378Z,66.34
2022-10-31T06:04:07.872Z,66.10
2022-10-31T06:06:36.356Z,65.74
2022-10-31T06:09:03.164Z,66.09
2022-10-31T06:11:33.350Z,66.31
2022-10-31T06:14:02.748Z,66.06
2022-10-31T06:16:40.709Z,66.02
2022-10-31T06:19:33.593Z,66.62
2022-10-31T06:22:00.247Z,67.02
2022-10-31T06:24:28.065Z,66.03
2022-10-31T06:26:54.742Z,65.55
2022-10-31T06:29:22.068Z,65.72
2022-10-31T06:32:01.655Z,64.91
2022-10-31T06:34:29.712Z,65.33
2022-10-31T06:36:56.427Z,65.69
2022-10-31T06:39:25.401Z,66.01
2022-10-31T06:41:53.552Z,65.34
2022-10-31T06:44:21.918Z,65.14
2022-10-31T06:46:54.235Z,65.02
2022-10-31T06:49:35.895Z,65.22
2022-10-31T06:52:08.131Z,65.20
2022-10-31T06:54:35.224Z,65.01
2022-10-31T06:57:03.100Z,64.74
2022-10-31T06:59:29.994Z,64.80
2022-10-31T07:02:12.303Z,64.75
2022-10-31T07:04:40.395Z,64.59
2022-10-31T07:07:07.937Z,64.67
2022-10-31T07:09:35.986Z,64.59
2022-10-31T07:12:04.613Z,64.52
2022-10-31T07:14:34.113Z,64.39
2022-10-31T07:17:01.620Z,64.18
2022-10-31T07:19:41.072Z,64.27
2022-10-31T07:22:08.645Z,64.27
2022-10-31T07:24:36.127Z,64.08
2022-10-31T07:27:42.968Z,64.25
2022-10-31T07:30:13.487Z,64.26
2022-10-31T07:32:42.004Z,64.21
2022-10-31T07:35:10.557Z,64.44
2022-10-31T07:37:46.899Z,64.33
2022-10-31T07:40:14.912Z,64.63
2022-10-31T07:42:52.551Z,64.54
2022-10-31T07:45:37.741Z,63.81
2022-10-31T07:48:23.162Z,63.78
2022-10-31T07:51:08.399Z,63.87
2022-10-31T07:53:53.485Z,63.68
2022-10-31T07:56:25.585Z,63.61
2022-10-31T07:58:52.704Z,63.50
2022-10-31T08:01:19.353Z,63.32
2022-10-31T08:03:58.881Z,62.91
2022-10-31T08:07:03.640Z,62.52
2022-10-31T08:09:34.898Z,61.11
2022-10-31T08:12:06.615Z,60.61
2022-10-31T08:14:34.552Z,61.28
2022-10-31T08:17:01.596Z,60.03
2022-10-31T08:19:37.021Z,60.44
2022-10-31T08:22:03.936Z,59.80
2022-10-31T08:24:30.684Z,60.39
2022-10-31T08:26:58.750Z,59.62
2022-10-31T08:29:25.612Z,58.89
2022-10-31T08:31:52.284Z,58.81
2022-10-31T08:34:37.388Z,58.44
2022-10-31T08:37:22.487Z,58.81
2022-10-31T08:39:53.513Z,58.78
2022-10-31T08:42:21.475Z,58.84
2022-10-31T08:44:48.180Z,57.96
2022-10-31T08:47:14.823Z,57.45
2022-10-31T08:49:41.497Z,57.46
2022-10-31T08:52:12.014Z,57.59
2022-10-31T08:54:41.450Z,57.71
2022-10-31T08:57:37.157Z,57.48
2022-10-31T09:00:05.274Z,57.47
2022-10-31T09:03:11.776Z,57.76
2022-10-31T09:05:38.776Z,57.19
2022-10-31T09:08:16.013Z,57.14
2022-10-31T09:10:45.059Z,57.12
2022-10-31T09:13:17.993Z,57.42
2022-10-31T09:16:03.428Z,56.91
2022-10-31T09:18:33.010Z,56.48
2022-10-31T09:21:01.770Z,55.33
2022-10-31T09:23:30.845Z,55.42
2022-10-31T09:26:00.884Z,55.08
2022-10-31T09:28:27.681Z,54.78
2022-10-31T09:30:58.266Z,54.87
2022-10-31T09:33:44.962Z,53.58
2022-10-31T09:36:41.012Z,53.36
2022-10-31T09:39:22.843Z,51.25
2022-10-31T09:42:03.399Z,50.44
2022-10-31T09:44:49.024Z,49.58
2022-10-31T09:47:41.761Z,48.99
2022-10-31T09:50:43.394Z,47.43
2022-10-31T09:53:43.604Z,46.05
2022-10-31T09:56:18.682Z,45.10
2022-10-31T09:58:56.284Z,43.60
2022-10-31T10:01:35.213Z,43.83
2022-10-31T10:04:28.315Z,43.95
2022-10-31T10:07:05.366Z,44.07
2022-10-31T10:09:44.906Z,44.49
2022-10-31T10:13:01.158Z,45.04
2022-10-31T10:15:37.174Z,45.52
2022-10-31T10:18:25.737Z,46.66
2022-10-31T10:21:23.521Z,47.43
2022-10-31T10:24:18.162Z,47.03
2022-10-31T10:26:55.930Z,47.00
2022-10-31T10:29:28.685Z,47.92
2022-10-31T10:31:58.957Z,47.83
2022-10-31T10:34:38.197Z,46.70
2022-10-31T10:37:22.951Z,47.04
2022-10-31T10:39:57.197Z,47.12
2022-10-31T10:42:46.467Z,47.30
2022-10-31T10:45:37.928Z,46.76
2022-10-31T10:48:12.773Z,46.81
2022-10-31T10:50:48.916Z,46.42
2022-10-31T10:53:32.769Z,45.50
2022-10-31T10:56:04.162Z,46.01
2022-10-31T10:58:31.208Z,46.85
2022-10-31T11:00:57.998Z,47.40
2022-10-31T11:03:24.698Z,47.79
2022-10-31T11:05:53.681Z,47.82
2022-10-31T11:08:34.597Z,48.44
2022-10-31T11:11:12.082Z,49.47
2022-10-31T11:13:42.521Z,49.62
2022-10-31T11:16:41.162Z,50.04
2022-10-31T11:19:24.583Z,50.19
2022-10-31T11:21:54.313Z,49.87
2022-10-31T11:24:27.139Z,49.76
2022-10-31T11:27:10.623Z,49.49
2022-10-31T11:29:37.781Z,48.94
2022-10-31T11:32:04.718Z,49.11
2022-10-31T11:34:38.249Z,49.77
2022-10-31T11:37:15.050Z,50.08
2022-10-31T11:39:44.577Z,50.33
2022-10-31T11:42:12.397Z,50.85
2022-10-31T11:44:43.520Z,51.05
2022-10-31T11:47:17.089Z,50.98
2022-10-31T11:49:47.129Z,51.75
2022-10-31T11:52:27.049Z,51.52
2022-10-31T11:54:59.281Z,51.80
2022-10-31T11:57:30.682Z,51.35
2022-10-31T12:00:04.505Z,51.25
2022-10-31T12:02:38.848Z,50.47
2022-10-31T12:05:12.419Z,51.06
2022-10-31T12:07:39.033Z,51.02
2022-10-31T12:10:12.708Z,51.24
2022-10-31T12:12:44.236Z,50.84
2022-10-31T12:15:29.268Z,51.75
2022-10-31T12:18:12.076Z,51.72
2022-10-31T12:20:48.574Z,51.30
2022-10-31T12:23:30.672Z,51.46
2022-10-31T12:26:08.186Z,51.02
2022-10-31T12:28:45.404Z,51.00
2022-10-31T12:31:29.062Z,50.78
2022-10-31T12:34:34.398Z,49.95
2022-10-31T12:37:16.568Z,49.06
2022-10-31T12:40:22.437Z,48.67
2022-10-31T12:43:19.854Z,48.26
2022-10-31T12:46:00.190Z,47.93
2022-10-31T12:48:46.004Z,48.51
2022-10-31T12:51:12.641Z,48.80
2022-10-31T12:54:05.876Z,49.67
2022-10-31T12:56:51.071Z,50.00
2022-10-31T12:59:41.493Z,50.28
2022-10-31T13:02:14.471Z,50.97
2022-10-31T13:04:59.155Z,51.29
2022-10-31T13:07:42.188Z,51.58
2022-10-31T13:10:19.388Z,51.62
2022-10-31T13:12:50.082Z,51.51
2022-10-31T13:15:23.540Z,51.20
2022-10-31T13:17:55.349Z,51.84
2022-10-31T13:20:28.111Z,52.38
2022-10-31T13:23:17.607Z,52.21
2022-10-31T13:25:55.015Z,51.84
2022-10-31T13:28:45.969Z,51.72
2022-10-31T13:31:12.958Z,51.57
2022-10-31T13:33:58.336Z,51.79
2022-10-31T13:36:55.574Z,52.53
2022-10-31T13:39:57.588Z,53.42
2022-10-31T13:42:41.731Z,52.83
2022-10-31T13:45:20.027Z,53.01
2022-10-31T13:48:19.630Z,52.91
2022-10-31T13:51:01.008Z,52.61
2022-10-31T13:53:36.548Z,53.04
2022-10-31T13:56:14.734Z,53.36
2022-10-31T13:59:03.332Z,53.08
2022-10-31T14:01:31.049Z,52.95
2022-10-31T14:04:11.030Z,52.95
2022-10-31T14:07:13.200Z,52.98
2022-10-31T14:09:51.586Z,52.88
2022-10-31T14:12:32.540Z,52.92
2022-10-31T14:15:13.702Z,52.56
2022-10-31T14:17:48.410Z,52.03
2022-10-31T14:20:15.099Z,52.55
2022-10-31T14:22:43.164Z,52.83
2022-10-31T14:25:45.233Z,53.00
2022-10-31T14:28:35.859Z,53.44
2022-10-31T14:31:02.836Z,53.37
2022-10-31T14:33:31.270Z,52.35
2022-10-31T14:36:24.703Z,52.81
2022-10-31T14:38:56.924Z,52.61
2022-10-31T14:42:14.791Z,53.20
2022-10-31T14:44:44.180Z,53.10
2022-10-31T14:47:19.750Z,53.46
2022-10-31T14:50:25.424Z,54.28
2022-10-31T14:52:56.989Z,54.60
2022-10-31T14:55:25.335Z,56.04
2022-10-31T14:57:56.838Z,54.94
2022-10-31T15:00:25.378Z,54.52
2022-10-31T15:03:07.014Z,54.66
2022-10-31T15:05:42.078Z,54.92
2022-10-31T15:08:46.764Z,55.92
2022-10-31T15:11:19.836Z,55.37
2022-10-31T15:13:50.782Z,56.17
2022-10-31T15:16:22.048Z,56.81
2022-10-31T15:18:52.967Z,56.56
2022-10-31T15:21:21.479Z,56.20
2022-10-31T15:23:49.595Z,56.58
2022-10-31T15:26:22.912Z,56.46
2022-10-31T15:29:05.584Z,56.55
2022-10-31T15:31:33.207Z,56.48
2022-10-31T15:34:06.351Z,57.31
2022-10-31T15:36:38.260Z,57.00
2022-10-31T15:39:05.641Z,57.05
2022-10-31T15:41:44.084Z,57.24
2022-10-31T15:44:20.667Z,57.29
2022-10-31T15:46:58.469Z,57.66
2022-10-31T15:49:41.719Z,57.85
2022-10-31T15:52:45.283Z,58.72
2022-10-31T15:55:21.970Z,58.27
2022-10-31T15:57:52.058Z,58.59
2022-10-31T16:00:25.991Z,58.59
2022-10-31T16:03:15.401Z,59.12
2022-10-31T16:05:48.045Z,59.31
2022-10-31T16:08:24.610Z,59.86
2022-10-31T16:10:51.312Z,59.88
2022-10-31T16:13:18.829Z,59.58
2022-10-31T16:16:03.775Z,59.96
2022-10-31T16:18:43.298Z,59.97
2022-10-31T16:21:11.553Z,60.05
2022-10-31T16:23:44.484Z,59.98
2022-10-31T16:26:17.795Z,60.33
2022-10-31T16:29:03.231Z,60.39
2022-10-31T16:31:39.186Z,60.59
2022-10-31T16:34:14.170Z,60.77
2022-10-31T16:36:41.065Z,60.89
2022-10-31T16:39:08.331Z,61.14
2022-10-31T16:41:43.038Z,61.58
2022-10-31T16:44:27.925Z,61.48
2022-10-31T16:47:15.488Z,61.84
2022-10-31T16:49:44.079Z,61.91
2022-10-31T16:52:10.891Z,61.94
2022-10-31T16:54:38.141Z,61.96
2022-10-31T16:57:06.263Z,62.27
2022-10-31T16:59:34.823Z,62.46
2022-10-31T17:02:03.784Z,62.33
2022-10-31T17:04:30.636Z,62.27
2022-10-31T17:06:57.298Z,62.50
2022-10-31T17:09:24.010Z,62.49
2022-10-31T17:11:53.823Z,62.69
2022-10-31T17:14:20.694Z,62.76
2022-10-31T17:16:47.434Z,62.85
2022-10-31T17:19:14.420Z,62.98
2022-10-31T17:21:41.493Z,63.05
2022-10-31T17:24:13.473Z,63.05
2022-10-31T17:26:40.326Z,63.09
2022-10-31T17:29:07.044Z,63.66
2022-10-31T17:31:36.656Z,63.67
2022-10-31T17:34:05.168Z,63.58
2022-10-31T17:36:35.398Z,64.18
2022-10-31T17:39:05.308Z,64.21
2022-10-31T17:41:32.039Z,64.33
2022-10-31T17:43:59.666Z,64.43
2022-10-31T17:46:28.294Z,64.45
2022-10-31T17:48:55.073Z,64.56
2022-10-31T17:51:21.856Z,64.55
2022-10-31T17:53:48.528Z,64.98
2022-10-31T17:56:15.157Z,64.98
2022-10-31T17:58:41.918Z,65.03
2022-10-31T18:01:10.930Z,65.08
2022-10-31T18:03:38.627Z,65.17
2022-10-31T18:06:05.949Z,65.25
2022-10-31T18:08:36.373Z,65.17
2022-10-31T18:11:15.830Z,65.23
2022-10-31T18:13:42.617Z,65.26
2022-10-31T18:16:11.191Z,65.15
2022-10-31T18:18:38.020Z,65.24
2022-10-31T18:21:05.055Z,65.26
2022-10-31T18:23:31.702Z,64.91
2022-10-31T18:25:58.429Z,64.66
2022-10-31T18:28:25.323Z,64.61
2022-10-31T18:30:52.029Z,64.49
2022-10-31T18:33:18.750Z,64.32
2022-10-31T18:35:46.158Z,64.30
2022-10-31T18:38:12.800Z,64.19
2022-10-31T18:40:39.445Z,64.08
2022-10-31T18:43:06.104Z,64.18
2022-10-31T18:45:46.044Z,64.19
2022-10-31T18:48:14.639Z,64.07
2022-10-31T18:50:42.217Z,63.88
2022-10-31T18:53:09.152Z,64.01
2022-10-31T18:55:41.534Z,63.65
2022-10-31T18:58:10.993Z,63.62
2022-10-31T19:00:38.577Z,63.46
2022-10-31T19:03:06.111Z,63.42
2022-10-31T19:05:32.921Z,63.43
2022-10-31T19:07:59.562Z,63.34
2022-10-31T19:10:26.289Z,63.59
2022-10-31T19:12:52.920Z,63.62
2022-10-31T19:15:19.615Z,63.72
2022-10-31T19:17:46.548Z,63.81
2022-10-31T19:20:14.039Z,63.96
2022-10-31T19:22:40.804Z,63.52
2022-10-31T19:25:10.464Z,63.48
2022-10-31T19:27:38.401Z,63.48
2022-10-31T19:30:06.295Z,63.49
2022-10-31T19:32:33.165Z,63.05
2022-10-31T19:34:59.885Z,63.12
2022-10-31T19:37:26.552Z,62.83
2022-10-31T19:39:53.168Z,62.79
2022-10-31T19:42:19.951Z,62.74
2022-10-31T19:44:46.591Z,62.52
2022-10-31T19:47:13.565Z,62.50
2022-10-31T19:49:40.206Z,62.55
2022-10-31T19:52:06.915Z,62.50
2022-10-31T19:54:33.529Z,62.39
2022-10-31T19:57:00.203Z,62.32
2022-10-31T19:59:26.885Z,62.48
2022-10-31T20:01:53.682Z,61.93
2022-10-31T20:04:20.444Z,61.65
2022-10-31T20:06:47.258Z,61.63
2022-10-31T20:09:14.643Z,61.43
2022-10-31T20:11:43.206Z,61.35
2022-10-31T20:14:12.716Z,61.04
2022-10-31T20:16:39.831Z,61.04
2022-10-31T20:19:06.661Z,61.08
2022-10-31T20:21:39.605Z,60.85
2022-10-31T20:24:08.441Z,61.16
2022-10-31T20:26:35.561Z,60.95
2022-10-31T20:29:03.658Z,60.94
2022-10-31T20:31:35.107Z,60.72
2022-10-31T20:34:02.458Z,60.66
2022-10-31T20:36:30.743Z,60.47
2022-10-31T20:38:58.558Z,60.10
2022-10-31T20:41:25.429Z,60.44
2022-10-31T20:43:52.644Z,60.34
2022-10-31T20:46:26.647Z,60.23
2022-10-31T20:48:54.437Z,60.15
2022-10-31T20:51:24.744Z,59.95
2022-10-31T20:53:52.585Z,59.72
2022-10-31T20:56:21.309Z,59.88
2022-10-31T20:58:48.763Z,59.73
2022-10-31T21:01:21.199Z,59.69
2022-10-31T21:03:48.343Z,59.82
2022-10-31T21:06:18.173Z,59.80
2022-10-31T21:08:45.586Z,59.84
2022-10-31T21:11:18.590Z,59.97
2022-10-31T21:13:46.516Z,59.75
2022-10-31T21:16:28.221Z,59.56
2022-10-31T21:18:55.236Z,59.47
2022-10-31T21:21:28.980Z,59.46
2022-10-31T21:24:01.802Z,59.49
2022-10-31T21:26:31.024Z,59.40
2022-10-31T21:28:58.815Z,59.49
2022-10-31T21:31:26.443Z,59.41
2022-10-31T21:33:53.099Z,59.24
2022-10-31T21:36:20.169Z,59.21
2022-10-31T21:38:54.033Z,59.04
2022-10-31T21:41:21.531Z,59.08
2022-10-31T21:43:50.123Z,59.03
2022-10-31T21:46:19.269Z,59.21
2022-10-31T21:48:46.340Z,58.78
2022-10-31T21:51:16.302Z,58.67
2022-10-31T21:54:01.688Z,58.75
2022-10-31T21:56:28.463Z,58.57
2022-10-31T21:58:55.837Z,58.62
2022-10-31T22:01:25.630Z,58.83
2022-10-31T22:03:52.801Z,58.32
2022-10-31T22:06:19.923Z,58.26
2022-10-31T22:08:47.321Z,58.71
2022-10-31T22:11:16.483Z,58.37
2022-10-31T22:13:45.467Z,58.23
2022-10-31T22:16:17.779Z,57.95
2022-10-31T22:18:45.379Z,57.79
2022-10-31T22:21:14.512Z,57.56
2022-10-31T22:23:42.231Z,57.63
2022-10-31T22:26:14.347Z,57.93
2022-10-31T22:28:42.796Z,57.75
2022-10-31T22:33:44.965Z,57.88
2022-10-31T22:36:13.828Z,57.92
2022-10-31T22:38:41.096Z,57.98
2022-10-31T22:41:09.937Z,57.87
2022-10-31T22:43:37.123Z,58.09
2022-10-31T22:46:06.276Z,58.57
2022-10-31T22:48:41.763Z,58.13
2022-10-31T22:51:17.295Z,58.36
2022-10-31T22:53:44.528Z,58.31
2022-10-31T22:56:14.591Z,58.54
2022-10-31T22:58:41.575Z,58.11
2022-10-31T23:01:10.876Z,58.20
2022-10-31T23:03:37.917Z,58.33
2022-10-31T23:06:06.438Z,58.19
2022-10-31T23:08:36.476Z,58.08
2022-10-31T23:11:13.969Z,58.21
2022-10-31T23:13:59.355Z,58.06
2022-10-31T23:16:26.111Z,58.16
2022-10-31T23:18:52.799Z,58.39
2022-10-31T23:21:38.133Z,58.52
2022-10-31T23:24:04.982Z,58.63
2022-10-31T23:26:50.378Z,58.75
2022-10-31T23:29:17.004Z,58.77
2022-10-31T23:31:43.649Z,58.96
2022-10-31T23:34:10.415Z,58.78
2022-10-31T23:36:37.148Z,58.76
2022-10-31T23:39:03.907Z,58.81
2022-10-31T23:41:30.620Z,59.07
2022-10-31T23:43:57.262Z,58.95
2022-10-31T23:46:23.947Z,58.84
2022-10-31T23:48:50.757Z,58.78
2022-10-31T23:51:17.509Z,59.12
2022-10-31T23:53:45.451Z,59.29
2022-10-31T23:56:13.040Z,59.21
2022-10-31T23:58:40.132Z,59.40
